createdAt,value
2022-10-05T04:03:28.933Z,18.40
2022-10-05T04:07:42.646Z,18.41
2022-10-05T04:11:49.662Z,18.34
2022-10-05T04:15:58.547Z,18.39
2022-10-05T04:20:07.082Z,18.28
2022-10-05T04:24:17.121Z,17.93
2022-10-05T04:28:32.232Z,17.89
2022-10-05T04:32:39.723Z,17.86
2022-10-05T04:36:55.479Z,17.86
2022-10-05T04:41:15.285Z,18.07
2022-10-05T04:45:30.367Z,17.90
2022-10-05T04:49:50.964Z,17.93
2022-10-05T04:54:01.299Z,18.10
2022-10-05T04:58:14.173Z,18.19
2022-10-05T05:02:30.114Z,18.20
2022-10-05T05:06:39.645Z,18.15
2022-10-05T05:11:13.670Z,18.30
2022-10-05T05:15:33.228Z,18.13
2022-10-05T05:19:46.257Z,18.15
2022-10-05T05:23:55.465Z,18.24
2022-10-05T05:28:07.157Z,18.16
2022-10-05T05:32:25.121Z,18.19
2022-10-05T05:36:41.896Z,18.23
2022-10-05T05:40:51.302Z,18.29
2022-10-05T05:45:01.015Z,18.44
2022-10-05T05:49:15.509Z,18.39
2022-10-05T05:53:22.209Z,18.50
2022-10-05T05:57:30.690Z,19.03
2022-10-05T06:01:44.162Z,18.62
2022-10-05T06:05:52.193Z,18.83
2022-10-05T06:10:02.863Z,19.23
2022-10-05T06:14:15.848Z,19.43
2022-10-05T06:18:22.611Z,19.52
2022-10-05T06:22:33.932Z,19.87
2022-10-05T06:27:06.312Z,19.63
2022-10-05T06:31:20.072Z,20.12
2022-10-05T06:35:44.284Z,20.52
2022-10-05T06:40:06.654Z,20.78
2022-10-05T06:44:17.057Z,20.80
2022-10-05T06:48:32.289Z,21.26
2022-10-05T06:53:19.419Z,21.56
2022-10-05T06:57:42.197Z,22.02
2022-10-05T07:01:54.500Z,22.16
2022-10-05T07:06:06.247Z,22.18
2022-10-05T07:10:20.458Z,22.19
2022-10-05T07:14:34.576Z,22.57
2022-10-05T07:18:47.824Z,22.82
2022-10-05T07:23:05.678Z,23.29
2022-10-05T07:27:17.264Z,23.20
2022-10-05T07:31:28.007Z,23.33
2022-10-05T07:36:05.922Z,23.55
2022-10-05T07:40:16.016Z,23.42
2022-10-05T07:44:26.318Z,23.49
2022-10-05T07:48:36.487Z,23.98
2022-10-05T07:52:41.916Z,24.03
2022-10-05T07:56:50.980Z,24.80
2022-10-05T08:01:03.830Z,24.35
2022-10-05T08:05:15.123Z,24.76
2022-10-05T08:09:33.955Z,25.25
2022-10-05T08:13:43.367Z,25.82
2022-10-05T08:17:53.541Z,24.83
2022-10-05T08:22:04.175Z,24.97
2022-10-05T08:26:17.422Z,24.65
2022-10-05T08:30:20.547Z,24.83
2022-10-05T08:34:31.398Z,24.56
2022-10-05T08:38:34.692Z,24.24
2022-10-05T08:43:02.769Z,24.03
2022-10-05T08:47:19.622Z,24.15
2022-10-05T08:51:40.559Z,24.55
2022-10-05T08:55:56.572Z,24.08
2022-10-05T09:00:12.638Z,24.10
2022-10-05T09:04:30.911Z,24.23
2022-10-05T09:09:02.171Z,24.29
2022-10-05T09:13:31.403Z,24.80
2022-10-05T09:18:04.330Z,24.92
2022-10-05T09:22:16.011Z,24.73
2022-10-05T09:26:45.970Z,25.13
2022-10-05T09:31:12.779Z,25.27
2022-10-05T09:35:35.852Z,25.11
2022-10-05T09:40:15.548Z,24.76
2022-10-05T09:44:57.234Z,25.49
2022-10-05T09:49:24.840Z,25.36
2022-10-05T09:53:55.307Z,25.25
2022-10-05T09:58:29.362Z,26.03
2022-10-05T10:03:09.190Z,26.45
2022-10-05T10:07:45.637Z,26.73
2022-10-05T10:12:21.077Z,26.85
2022-10-05T10:16:44.894Z,26.90
2022-10-05T10:21:02.906Z,26.77
2022-10-05T10:25:35.327Z,26.49
2022-10-05T10:29:49.274Z,26.32
2022-10-05T10:34:09.205Z,26.27
2022-10-05T10:38:30.935Z,26.17
2022-10-05T10:42:40.719Z,25.75
2022-10-05T10:46:54.572Z,26.36
2022-10-05T10:51:14.703Z,26.27
2022-10-05T10:55:31.026Z,26.24
2022-10-05T11:00:22.511Z,26.55
2022-10-05T11:04:58.729Z,26.79
2022-10-05T11:09:24.446Z,26.29
2022-10-05T11:14:08.227Z,26.21
2022-10-05T11:18:26.848Z,26.77
2022-10-05T11:22:46.003Z,26.28
2022-10-05T11:27:13.162Z,26.72
2022-10-05T11:31:36.418Z,26.98
2022-10-05T11:35:59.048Z,27.25
2022-10-05T11:40:27.670Z,27.46
2022-10-05T11:45:02.977Z,27.18
2022-10-05T11:49:25.650Z,28.08
2022-10-05T11:53:34.454Z,28.00
2022-10-05T11:57:40.328Z,27.36
2022-10-05T12:01:49.527Z,27.21
2022-10-05T12:06:05.758Z,28.07
2022-10-05T12:10:23.207Z,28.34
2022-10-05T12:14:37.023Z,28.10
2022-10-05T12:18:57.442Z,28.65
2022-10-05T12:23:11.767Z,28.25
2022-10-05T12:27:17.826Z,27.76
2022-10-05T12:31:29.628Z,28.01
2022-10-05T12:35:48.361Z,28.35
2022-10-05T12:40:02.806Z,28.34
2022-10-05T12:44:18.121Z,28.35
2022-10-05T12:48:34.571Z,27.81
2022-10-05T12:52:55.909Z,27.29
2022-10-05T12:57:07.531Z,27.39
2022-10-05T13:01:22.179Z,27.36
2022-10-05T13:05:31.343Z,27.21
2022-10-05T13:09:40.953Z,27.21
2022-10-05T13:13:56.379Z,27.50
2022-10-05T13:18:13.254Z,27.52
2022-10-05T13:22:32.846Z,27.67
2022-10-05T13:26:40.289Z,28.24
2022-10-05T13:30:52.879Z,28.35
2022-10-05T13:35:03.679Z,27.46
2022-10-05T13:39:22.498Z,27.93
2022-10-05T13:43:34.299Z,28.34
2022-10-05T13:47:46.477Z,28.53
2022-10-05T13:51:56.397Z,28.66
2022-10-05T13:56:01.428Z,28.69
2022-10-05T14:00:14.745Z,28.97
2022-10-05T14:04:21.975Z,28.53
2022-10-05T14:08:28.879Z,29.12
2022-10-05T14:12:40.614Z,28.95
2022-10-05T14:16:51.974Z,28.76
2022-10-05T14:21:02.043Z,29.32
2022-10-05T14:25:17.006Z,29.47
2022-10-05T14:29:24.019Z,30.31
2022-10-05T14:33:28.904Z,30.11
2022-10-05T14:37:45.600Z,30.14
2022-10-05T14:41:50.246Z,30.43
2022-10-05T14:45:54.905Z,30.23
2022-10-05T14:50:13.854Z,30.05
2022-10-05T14:54:28.370Z,30.60
2022-10-05T14:58:44.602Z,30.43
2022-10-05T15:03:20.291Z,31.13
2022-10-05T15:07:25.953Z,31.10
2022-10-05T15:11:38.874Z,31.47
2022-10-05T15:15:48.362Z,31.27
2022-10-05T15:20:01.637Z,31.46
2022-10-05T15:24:06.038Z,32.02
2022-10-05T15:28:18.387Z,32.26
2022-10-05T15:32:33.975Z,32.67
2022-10-05T15:36:44.014Z,32.34
2022-10-05T15:40:58.657Z,32.37
2022-10-05T15:45:15.866Z,32.18
2022-10-05T15:49:28.435Z,31.85
2022-10-05T15:53:38.027Z,31.82
2022-10-05T15:57:50.458Z,31.89
2022-10-05T16:02:00.783Z,32.44
2022-10-05T16:06:41.814Z,32.28
2022-10-05T16:10:45.999Z,32.25
2022-10-05T16:15:04.581Z,31.89
2022-10-05T16:19:17.448Z,31.47
2022-10-05T16:23:34.694Z,31.41
2022-10-05T16:27:50.988Z,30.66
2022-10-05T16:31:59.030Z,30.63
2022-10-05T16:36:16.814Z,30.55
2022-10-05T16:40:30.876Z,30.17
2022-10-05T16:44:40.936Z,29.68
2022-10-05T16:48:53.706Z,29.63
2022-10-05T16:53:03.290Z,28.91
2022-10-05T16:57:14.516Z,28.74
2022-10-05T17:01:31.013Z,28.84
2022-10-05T17:05:48.606Z,28.37
2022-10-05T17:10:27.142Z,28.25
2022-10-05T17:14:41.234Z,27.76
2022-10-05T17:19:21.672Z,27.67
2022-10-05T17:23:32.539Z,27.21
2022-10-05T17:27:52.125Z,27.25
2022-10-05T17:32:03.387Z,27.08
2022-10-05T17:36:18.348Z,27.36
2022-10-05T17:40:36.945Z,27.29
2022-10-05T17:44:40.907Z,27.93
2022-10-05T17:49:01.256Z,27.63
2022-10-05T17:53:39.906Z,27.43
2022-10-05T17:57:42.597Z,27.42
2022-10-05T18:02:16.419Z,27.44
2022-10-05T18:06:24.251Z,27.64
2022-10-05T18:10:28.788Z,27.85
2022-10-05T18:14:55.063Z,27.70
2022-10-05T18:18:59.158Z,27.75
2022-10-05T18:23:29.937Z,27.93
2022-10-05T18:28:05.373Z,27.68
2022-10-05T18:32:19.459Z,26.72
2022-10-05T18:36:38.129Z,26.72
2022-10-05T18:40:53.007Z,26.57
2022-10-05T18:45:00.358Z,26.48
2022-10-05T18:49:16.111Z,26.81
2022-10-05T18:53:31.556Z,26.15
2022-10-05T18:57:51.380Z,26.32
2022-10-05T19:02:20.411Z,26.47
2022-10-05T19:06:27.291Z,26.41
2022-10-05T19:10:42.504Z,26.53
2022-10-05T19:14:56.375Z,26.81
2022-10-05T19:19:11.103Z,26.64
2022-10-05T19:23:29.213Z,26.59
2022-10-05T19:27:44.580Z,26.28
2022-10-05T19:31:52.734Z,26.94
2022-10-05T19:36:08.915Z,26.77
2022-10-05T19:40:22.023Z,27.26
2022-10-05T19:44:44.073Z,27.40
2022-10-05T19:48:48.923Z,27.44
2022-10-05T19:52:57.721Z,27.36
2022-10-05T19:57:02.475Z,26.95
2022-10-05T20:01:07.844Z,26.73
2022-10-05T20:05:14.527Z,26.96
2022-10-05T20:09:21.897Z,27.13
2022-10-05T20:13:24.527Z,27.18
2022-10-05T20:17:46.792Z,27.05
2022-10-05T20:21:51.330Z,26.90
2022-10-05T20:26:08.059Z,26.93
2022-10-05T20:30:13.470Z,26.77
2022-10-05T20:34:17.925Z,26.93
2022-10-05T20:38:20.643Z,26.89
2022-10-05T20:42:23.802Z,26.88
2022-10-05T20:46:26.489Z,26.88
2022-10-05T20:50:32.680Z,26.89
2022-10-05T20:54:35.350Z,26.77
2022-10-05T20:58:37.962Z,26.56
